COOK1: Arkansas River Nr Coolidge, KS

                                SHEF ID:       COOK1     ARKANSAS R NR COOLIDGE, KS
STATION TYPE:
Regulating: Stage = 8.00, Flow = 2041

PRECIP STAGE STAGE(2) RIV-FLOW WTR-TEMP CONDUCT BAT-LOAD
in ft ft cfs F umho/cm volt
Ccp-Rev Ccp-Rev Ccp-Rev Ccp-Rev Ccp-Rev Ccp-Rev Ccp-Rev
(America/Chicago)
04/30 00:00 0.00 1.76 ---- 15 55.65 7429 12.50
04/30 01:00 0.00 1.76 ---- 15 54.97 7418 12.46
04/30 02:00 0.00 1.76 ---- 15 54.57 7411 12.44
04/30 03:00 0.00 1.76 ---- 15 54.48 7382 12.40
04/30 04:00 0.00 1.76 ---- 15 54.32 7369 12.37
04/30 05:00 0.00 1.76 ---- 15 54.18 7358 12.34
04/30 06:00 0.00 1.76 ---- 15 53.98 7358 12.31
04/30 07:00 0.00 1.76 ---- 15 53.65 7376 12.28
04/30 08:00 0.00 1.75 ---- 15 53.33 7396 12.27
04/30 09:00 0.00 1.75 ---- 15 53.01 7398 12.30
04/30 10:00 0.00 1.75 ---- 15 53.49 7402 12.70
04/30 11:00 0.00 1.75 ---- 15 53.40 7393 12.90
04/30 12:00 0.00 1.75 ---- 15 54.23 7394 13.14
04/30 13:00 0.00 1.75 ---- 15 55.08 7396 13.42
04/30 14:00 0.00 1.75 ---- 15 55.62 7400 13.39
04/30 15:00 0.00 1.75 ---- 15 55.92 7409 13.72
04/30 16:00 0.00 1.76 ---- 15 55.47 7400 13.76
04/30 17:00 0.00 1.76 ---- 15 55.18 7357 13.82
04/30 18:00 0.00 1.77 ---- 15 55.09 7328 13.85
04/30 19:00 0.00 1.77 ---- 15 54.57 7310 13.18
04/30 20:00 0.00 1.78 ---- 16 54.23 7285 12.80
04/30 21:00 0.00 1.79 ---- 16 53.67 7263 12.48
04/30 22:00 0.00 1.80 ---- 17 53.22 7218 12.48
04/30 23:00 0.00 1.79 ---- 16 52.93 7202 12.47
Data processed at Fri 01May2026 04:30 GMT

NOTICE: If you are parsing this page

Please convert to using our Data API. Starting early 2026 we will be migrating to: https://water.usace.army.mil with modern pages rendered in JavaScript. When this migration completes you will no longer be able to scrape this page! CWMSDataAPI (CDA)

Timeseries IDs (TSIDs)

TSIDs used from left to right in the data table
COOL.Precip-Inc.Total.1Hour.1Hour.Ccp-Rev
COOL.Stage.Inst.1Hour.0.Ccp-Rev
COOL.Stage-Alt.Inst.1Hour.0.Ccp-Rev
COOL.Flow.Inst.1Hour.0.Ccp-Rev
COOL.Temp-Water.Inst.1Hour.0.Ccp-Rev
COOL.Cond.Inst.1Hour.0.Ccp-Rev
COOL.Volt-Battery Load.Inst.1Hour.0.Ccp-Rev

                            

All information presented herein is the property of the government of the United States of America and may be revised or deleted at any time without prior notice. Dissemination of this information without the expressed written consent of the Public Affairs Office, Tulsa District U.S. Army Corps of Engineers is strictly prohibited. These data are gathered electronically and, as presented, have NOT undergone any form of quality control. These data are NOT guaranteed to be valid or correct.